Time;durP1;ratioP1;P1;durP2;ratioP2;P2;SDS_P1;SDS_P2;PMS_P1;PMS_P2;Temp;Humidity;BMP_temperature;BMP_pressure;BME280_temperature;BME280_humidity;BME280_pressure;Samples;Min_cycle;Max_cycle;Signal;HPM_P1;HPM_P2
2022/07/06 00:00:49;;;;;;;7.00;5.87;;;;;;;22.56;100.00;99374.73;1750311;82;21026;-66
2022/07/06 00:03:16;;;;;;;7.20;6.50;;;;;;;22.52;100.00;99364.94;1730553;82;20999;-64
2022/07/06 00:05:42;;;;;;;8.80;6.28;;;;;;;22.49;100.00;99371.20;1745880;82;21900;-65
2022/07/06 00:08:09;;;;;;;7.80;5.97;;;;;;;22.48;100.00;99375.14;1742506;82;21502;-65
2022/07/06 00:10:35;;;;;;;6.83;5.87;;;;;;;22.51;100.00;99368.05;1749107;82;20979;-64
2022/07/06 00:13:02;;;;;;;11.20;5.97;;;;;;;22.49;100.00;99372.59;1731205;82;21046;-64
2022/07/06 00:15:28;;;;;;;7.53;6.35;;;;;;;22.45;100.00;99369.50;1748679;82;21463;-64
2022/07/06 00:17:56;;;;;;;9.48;6.55;;;;;;;22.41;100.00;99372.77;1734057;82;20975;-64
2022/07/06 00:20:23;;;;;;;9.40;6.30;;;;;;;22.41;100.00;99371.38;1726266;82;21026;-64
2022/07/06 00:22:50;;;;;;;8.93;6.25;;;;;;;22.43;100.00;99369.04;1738741;82;20989;-64
2022/07/06 00:25:16;;;;;;;8.95;6.17;;;;;;;22.43;100.00;99369.04;1736892;82;20968;-64
2022/07/06 00:27:43;;;;;;;7.87;6.35;;;;;;;22.39;100.00;99370.34;1735411;82;20932;-63
2022/07/06 00:30:11;;;;;;;8.75;6.35;;;;;;;22.36;100.00;99371.06;1738154;82;21047;-64
2022/07/06 00:32:39;;;;;;;7.90;6.05;;;;;;;22.39;100.00;99370.34;1724775;82;21027;-64
2022/07/06 00:35:07;;;;;;;8.85;6.50;;;;;;;22.39;100.00;99370.34;1735595;82;21035;-64
2022/07/06 00:37:33;;;;;;;7.78;5.90;;;;;;;22.38;100.00;99361.82;1715898;82;21499;-63
2022/07/06 00:40:00;;;;;;;7.00;6.15;;;;;;;22.34;100.00;99365.08;1730640;82;21079;-64
2022/07/06 00:42:27;;;;;;;8.85;6.35;;;;;;;22.30;100.00;99364.99;1711518;82;21657;-64
2022/07/06 00:44:53;;;;;;;8.40;5.92;;;;;;;22.29;100.00;99368.11;1734745;82;21021;-64
2022/07/06 00:47:20;;;;;;;9.08;6.08;;;;;;;22.32;100.00;99366.00;1725049;82;21011;-64
2022/07/06 00:52:31;;;;;;;7.83;6.03;;;;;;;22.24;100.00;99361.47;1736687;82;21546;-64
2022/07/06 00:54:58;;;;;;;10.68;6.40;;;;;;;22.17;100.00;99356.55;1735497;82;21605;-65
2022/07/06 00:57:24;;;;;;;6.80;5.47;;;;;;;22.15;100.00;99354.70;1737665;82;21562;-64
2022/07/06 00:59:51;;;;;;;8.95;6.30;;;;;;;22.18;100.00;99350.41;1725298;82;21028;-64
2022/07/06 01:02:18;;;;;;;7.72;6.33;;;;;;;22.17;100.00;99352.39;1710719;82;21362;-65
2022/07/06 01:04:44;;;;;;;7.62;6.47;;;;;;;22.11;100.00;99356.58;1709937;82;21010;-63
2022/07/06 01:07:12;;;;;;;8.80;6.70;;;;;;;22.05;100.00;99352.47;1716898;82;21015;-65
2022/07/06 01:09:39;;;;;;;6.87;6.17;;;;;;;22.03;100.00;99349.27;1725963;82;21023;-64
2022/07/06 01:12:07;;;;;;;7.70;6.33;;;;;;;22.03;100.00;99342.33;1738299;82;20991;-63
2022/07/06 01:14:33;;;;;;;9.88;6.85;;;;;;;22.01;100.00;99347.98;1727188;82;21012;-65
2022/07/06 01:17:01;;;;;;;12.53;6.72;;;;;;;21.97;100.00;99352.63;1708583;82;21528;-66
2022/07/06 01:19:28;;;;;;;9.95;6.42;;;;;;;21.90;100.00;99354.63;1715089;82;21429;-63
2022/07/06 01:21:55;;;;;;;8.55;6.22;;;;;;;21.88;100.00;99356.13;1716524;82;21003;-63
2022/07/06 01:24:21;;;;;;;8.30;6.60;;;;;;;21.89;100.00;99355.79;1740710;82;21526;-63
2022/07/06 01:26:47;;;;;;;9.28;6.50;;;;;;;21.89;100.00;99357.17;1718844;82;21569;-63
2022/07/06 01:29:14;;;;;;;7.47;6.28;;;;;;;21.86;100.00;99353.70;1745170;80;21005;-63
2022/07/06 01:31:49;;;;;;;7.87;6.15;;;;;;;21.80;100.00;99353.75;1732844;82;20987;-63
2022/07/06 01:35:55;;;;;;;8.43;5.83;;;;;;;21.78;100.00;99356.08;1818364;79;22912;-63
2022/07/06 01:38:23;;;;;;;6.60;5.95;;;;;;;21.72;100.00;99354.70;1773768;80;21103;-63
2022/07/06 01:40:50;;;;;;;9.93;6.65;;;;;;;21.74;100.00;99351.83;1760050;81;21579;-62
2022/07/06 01:43:16;;;;;;;8.98;6.53;;;;;;;21.74;100.00;99355.17;1746914;80;21041;-63
2022/07/06 01:45:43;;;;;;;8.45;6.50;;;;;;;21.71;100.00;99347.58;1760207;81;21055;-63
2022/07/06 01:48:11;;;;;;;7.87;6.45;;;;;;;21.68;100.00;99343.53;1731055;81;21584;-62
2022/07/06 01:50:38;;;;;;;9.73;6.50;;;;;;;21.66;100.00;99333.40;1759277;81;21022;-63
2022/07/06 01:53:05;;;;;;;12.55;6.67;;;;;;;21.69;100.00;99333.26;1744831;80;21082;-62
2022/07/06 01:55:32;;;;;;;8.05;6.20;;;;;;;21.67;100.00;99340.55;1730374;81;21086;-63
2022/07/06 01:57:59;;;;;;;7.53;6.45;;;;;;;21.62;100.00;99347.73;1730228;80;21006;-63
2022/07/06 02:00:27;;;;;;;8.10;6.20;;;;;;;21.58;100.00;99344.63;1760032;81;20998;-63
2022/07/06 02:02:54;;;;;;;8.85;6.70;;;;;;;21.57;100.00;99337.50;1760566;80;20966;-62
2022/07/06 02:05:20;;;;;;;8.63;6.65;;;;;;;21.59;100.00;99337.94;1760669;81;21034;-62
2022/07/06 02:07:47;;;;;;;7.75;6.67;;;;;;;21.57;100.00;99340.27;1755739;80;20963;-62
2022/07/06 02:10:14;;;;;;;8.20;6.80;;;;;;;21.52;100.00;99343.28;1759560;80;21006;-63
2022/07/06 02:12:43;;;;;;;8.65;6.50;;;;;;;21.47;100.00;99340.78;1750627;81;21464;-63
2022/07/06 02:15:10;;;;;;;8.73;6.58;;;;;;;21.46;100.00;99336.39;1729766;81;21004;-62
2022/07/06 02:17:39;;;;;;;9.30;7.08;;;;;;;21.46;100.00;99329.47;1759724;80;20962;-62
2022/07/06 02:20:08;;;;;;;7.22;6.53;;;;;;;21.45;100.00;99335.59;1760200;81;21534;-62
2022/07/06 02:22:35;;;;;;;9.58;6.80;;;;;;;21.43;100.00;99332.95;1728910;83;21571;-62
2022/07/06 02:25:01;;;;;;;10.68;7.20;;;;;;;21.40;100.00;99332.28;1757359;81;21129;-62
2022/07/06 02:27:28;;;;;;;13.58;7.20;;;;;;;21.41;100.00;99333.87;1748810;80;21518;-62
2022/07/06 02:29:55;;;;;;;7.85;6.37;;;;;;;21.43;100.00;99330.19;1729936;80;21593;-62
2022/07/06 02:32:22;;;;;;;8.13;6.58;;;;;;;21.49;100.00;99335.11;1743599;81;20962;-62
2022/07/06 02:34:49;;;;;;;9.35;6.53;;;;;;;21.52;100.00;99334.97;1744419;80;21033;-63
2022/07/06 02:37:16;;;;;;;10.43;6.97;;;;;;;21.50;100.00;99331.19;1752852;82;21027;-62
2022/07/06 02:39:44;;;;;;;7.45;6.22;;;;;;;21.50;100.00;99340.08;1753021;80;21054;-62
2022/07/06 02:42:12;;;;;;;9.70;6.60;;;;;;;21.52;100.00;99337.74;1742905;82;21066;-62
2022/07/06 02:44:39;;;;;;;12.47;6.47;;;;;;;21.59;100.00;99332.39;1721404;82;21099;-62
2022/07/06 02:47:06;;;;;;;7.08;6.28;;;;;;;21.65;100.00;99330.97;1730945;81;21031;-64
2022/07/06 02:49:33;;;;;;;9.93;6.60;;;;;;;21.66;100.00;99327.86;1740764;81;21134;-64
2022/07/06 02:51:59;;;;;;;7.78;6.53;;;;;;;21.67;100.00;99327.28;1752537;82;21425;-65
2022/07/06 02:54:26;;;;;;;9.05;6.37;;;;;;;21.69;100.00;99320.80;1746824;81;21083;-64
2022/07/06 02:56:55;;;;;;;10.25;6.78;;;;;;;21.72;100.00;99325.63;1749139;82;21537;-64
2022/07/06 02:59:21;;;;;;;7.50;6.15;;;;;;;21.76;100.00;99320.98;1751089;81;21131;-64
2022/07/06 03:01:49;;;;;;;7.22;5.72;;;;;;;21.85;100.00;99323.02;1752337;82;20998;-63
2022/07/06 03:04:15;;;;;;;7.50;6.03;;;;;;;21.91;100.00;99315.27;1752427;81;21049;-62
2022/07/06 03:06:42;;;;;;;8.80;6.10;;;;;;;21.91;100.00;99316.66;1749438;81;21482;-62
2022/07/06 03:09:09;;;;;;;7.53;6.10;;;;;;;21.93;100.00;99322.66;1752601;81;21086;-62
2022/07/06 03:11:36;;;;;;;7.03;6.00;;;;;;;21.94;100.00;99318.13;1752808;82;20983;-62
2022/07/06 03:14:04;;;;;;;8.98;5.97;;;;;;;21.99;100.00;99323.42;1740949;80;21530;-62
2022/07/06 03:16:32;;;;;;;8.65;5.92;;;;;;;22.05;100.00;99321.98;1743105;82;21002;-62
2022/07/06 03:18:59;;;;;;;8.08;5.53;;;;;;;22.19;100.00;99320.95;1726433;82;21043;-65
2022/07/06 03:21:26;;;;;;;10.32;5.65;;;;;;;22.40;100.00;99315.11;1738460;82;20981;-64
2022/07/06 03:23:53;;;;;;;6.83;5.67;;;;;;;22.61;100.00;99311.44;1749150;81;20990;-64
2022/07/06 03:26:19;;;;;;;7.20;5.55;;;;;;;22.82;100.00;99319.47;1735163;82;21035;-64
2022/07/06 03:28:46;;;;;;;7.12;5.40;;;;;;;23.04;100.00;99314.60;1679128;84;21101;-64
2022/07/06 03:31:13;;;;;;;7.37;5.53;;;;;;;23.26;100.00;99319.44;1752333;81;20996;-64
2022/07/06 03:33:41;;;;;;;7.87;5.17;;;;;;;23.54;100.00;99322.58;1742648;81;21055;-65
2022/07/06 03:36:09;;;;;;;7.33;6.17;;;;;;;23.79;100.00;99322.45;1759005;81;21063;-63
2022/07/06 03:38:36;;;;;;;7.87;5.35;;;;;;;24.02;100.00;99322.48;1760249;80;21052;-65
2022/07/06 03:41:02;;;;;;;7.83;6.10;;;;;;;24.36;100.00;99322.87;1760271;81;21031;-65
2022/07/06 03:43:30;;;;;;;8.20;6.12;;;;;;;24.36;100.00;99322.87;1759958;80;21447;-65
2022/07/06 03:45:56;;;;;;;7.47;5.62;;;;;;;24.53;100.00;99318.75;1759995;81;21075;-65
2022/07/06 03:48:24;;;;;;;7.67;5.30;;;;;;;24.64;100.00;99316.94;1760138;80;21115;-65
2022/07/06 03:50:53;;;;;;;7.72;5.37;;;;;;;24.72;100.00;99312.50;1759254;81;21093;-65
2022/07/06 03:53:19;;;;;;;7.53;5.22;;;;;;;24.83;100.00;99307.12;1732038;81;21715;-65
2022/07/06 03:56:27;;;;;;;8.03;5.12;;;;;;;24.96;100.00;99304.30;1760105;81;21002;-65
2022/07/06 03:58:15;;;;;;;11.70;5.12;;;;;;;24.99;100.00;99305.52;1755885;80;21066;-64
2022/07/06 04:00:41;;;;;;;6.97;5.10;;;;;;;25.05;100.00;99300.63;1759883;81;21078;-65
2022/07/06 04:03:09;;;;;;;7.62;5.05;;;;;;;25.17;100.00;99302.38;1732545;81;21094;-64
2022/07/06 04:05:39;;;;;;;6.15;5.25;;;;;;;25.31;100.00;99298.95;1732894;81;21086;-65
2022/07/06 04:08:06;;;;;;;7.70;5.08;;;;;;;25.47;100.00;99296.15;1734731;81;21129;-64
2022/07/06 04:10:35;;;;;;;6.30;4.95;;;;;;;25.62;100.00;99290.97;1738243;80;21129;-65
2022/07/06 04:13:02;;;;;;;7.20;5.28;;;;;;;25.78;100.00;99289.94;1759865;80;21033;-65
2022/07/06 04:15:31;;;;;;;9.43;5.25;;;;;;;25.93;100.00;99293.08;1759786;81;21058;-64
2022/07/06 04:17:59;;;;;;;10.48;4.95;;;;;;;26.06;100.00;99300.77;1760150;80;21027;-65
2022/07/06 04:20:30;;;;;;;9.23;5.12;;;;;;;26.29;100.00;99301.19;1760152;81;21057;-65
2022/07/06 04:22:57;;;;;;;6.35;4.35;;;;;;;26.55;100.00;99301.77;1759281;80;20959;-65
2022/07/06 04:25:25;;;;;;;9.13;5.00;;;;;;;26.88;100.00;99286.03;1727514;81;21002;-63
2022/07/06 04:27:52;;;;;;;7.35;5.42;;;;;;;27.14;100.00;99289.34;1694319;84;21022;-63
2022/07/06 04:30:20;;;;;;;6.65;4.45;;;;;;;27.18;100.00;99294.94;1695157;84;21010;-64
2022/07/06 04:32:47;;;;;;;7.72;4.80;;;;;;;27.07;100.00;99292.10;1724207;82;21033;-63
2022/07/06 04:35:13;;;;;;;5.00;4.30;;;;;;;27.06;100.00;99284.94;1717739;82;21027;-63
2022/07/06 04:37:41;;;;;;;6.58;4.20;;;;;;;26.99;100.00;99285.49;1746671;82;21027;-64
2022/07/06 04:40:08;;;;;;;10.40;3.90;;;;;;;26.81;100.00;99295.15;1746149;82;21065;-63
2022/07/06 04:42:37;;;;;;;5.33;3.87;;;;;;;26.68;100.00;99284.89;1726027;82;20995;-63
2022/07/06 04:45:06;;;;;;;4.45;3.67;;;;;;;26.63;100.00;99287.26;1749655;80;21050;-63
2022/07/06 04:47:32;;;;;;;5.92;4.20;;;;;;;26.61;100.00;99285.44;1726255;82;21470;-65
2022/07/06 04:49:59;;;;;;;6.78;4.40;;;;;;;26.67;100.00;99281.11;1746596;81;21085;-65
2022/07/06 04:52:26;;;;;;;4.78;3.77;;;;;;;26.80;100.00;99280.17;1733869;81;21646;-65
2022/07/06 04:54:54;;;;;;;6.53;4.10;;;;;;;26.99;100.00;99290.48;1734749;82;21026;-64
2022/07/06 04:57:21;;;;;;;4.55;3.62;;;;;;;27.26;100.00;99295.17;1737442;82;21036;-65
2022/07/06 04:59:48;;;;;;;6.03;3.87;;;;;;;27.57;100.00;99315.47;1746706;81;21157;-63
2022/07/06 05:02:15;;;;;;;6.72;4.12;;;;;;;27.96;100.00;99293.75;1733442;81;20991;-64
2022/07/06 05:04:42;;;;;;;5.65;3.62;;;;;;;28.28;100.00;99282.59;1746487;81;21078;-63
2022/07/06 05:07:09;;;;;;;5.80;3.37;;;;;;;28.51;100.00;99282.98;1746712;82;21501;-64
2022/07/06 05:09:35;;;;;;;4.40;3.40;;;;;;;28.73;100.00;99291.58;1746747;81;21703;-64
2022/07/06 05:12:04;;;;;;;5.00;3.85;;;;;;;28.91;100.00;99282.50;1727682;81;21514;-64
2022/07/06 05:14:31;;;;;;;6.62;4.00;;;;;;;29.14;100.00;99273.62;1738101;81;21031;-64
2022/07/06 05:16:58;;;;;;;6.45;3.50;;;;;;;29.50;100.00;99281.28;1750182;82;21021;-64
2022/07/06 05:19:24;;;;;;;5.30;3.33;;;;;;;29.71;100.00;99278.34;1748449;81;21067;-64
2022/07/06 05:21:51;;;;;;;6.33;3.52;;;;;;;30.02;100.00;99278.73;1746581;82;21043;-64
2022/07/06 05:24:18;;;;;;;5.60;3.58;;;;;;;30.30;95.56;99279.70;1746601;81;21090;-64
2022/07/06 05:26:46;;;;;;;6.30;3.42;;;;;;;30.51;96.02;99277.52;1746667;82;21125;-64
2022/07/06 05:29:14;;;;;;;4.30;3.35;;;;;;;30.63;89.33;99276.20;1746607;81;21038;-64
2022/07/06 05:31:42;;;;;;;5.28;3.52;;;;;;;30.53;85.95;99273.70;1728658;81;21605;-65
2022/07/06 05:34:10;;;;;;;5.10;3.35;;;;;;;30.49;85.86;99267.92;1752225;81;21540;-64
2022/07/06 05:36:37;;;;;;;4.92;3.50;;;;;;;30.43;82.58;99268.97;1752125;81;20986;-64
2022/07/06 05:39:04;;;;;;;5.03;3.30;;;;;;;30.51;85.34;99262.08;1742459;80;21031;-65
2022/07/06 05:41:31;;;;;;;4.67;3.40;;;;;;;30.69;88.29;99267.50;1704827;83;21008;-65
2022/07/06 05:43:59;;;;;;;4.00;3.40;;;;;;;30.94;78.39;99262.40;1723436;82;21098;-65
2022/07/06 05:46:26;;;;;;;5.80;3.55;;;;;;;31.08;82.57;99258.04;1729189;82;21086;-66
2022/07/06 05:51:38;;;;;;;5.30;3.85;;;;;;;31.63;81.36;99248.48;1723587;83;21035;-65
2022/07/06 05:54:04;;;;;;;5.30;3.75;;;;;;;31.89;77.77;99234.98;1723079;82;21661;-65
2022/07/06 05:56:31;;;;;;;5.97;4.10;;;;;;;32.18;73.71;99241.58;1722934;83;21075;-65
2022/07/06 05:58:58;;;;;;;5.28;4.37;;;;;;;32.44;69.54;99241.52;1725347;80;21119;-66
2022/07/06 06:01:25;;;;;;;4.92;3.95;;;;;;;32.77;66.15;99236.86;1724517;82;21098;-64
2022/07/06 06:03:53;;;;;;;4.65;4.03;;;;;;;33.19;64.29;99233.02;1733433;81;21081;-66
2022/07/06 06:06:20;;;;;;;4.72;3.70;;;;;;;33.69;62.04;99229.28;1749319;82;21090;-66
2022/07/06 06:08:47;;;;;;;7.85;4.37;;;;;;;33.84;58.56;99224.86;1745591;80;21062;-64
2022/07/06 06:11:14;;;;;;;5.67;4.28;;;;;;;34.07;54.67;99221.69;1722982;83;21550;-65
2022/07/06 06:13:41;;;;;;;6.22;4.35;;;;;;;34.38;53.64;99218.05;1726385;81;21091;-66
2022/07/06 06:16:07;;;;;;;6.37;4.05;;;;;;;34.55;51.17;99208.91;1730419;81;21451;-67
2022/07/06 06:18:35;;;;;;;6.40;4.30;;;;;;;34.46;51.32;99208.77;1728187;80;21107;-67
2022/07/06 06:21:02;;;;;;;7.28;4.42;;;;;;;34.44;50.31;99215.47;1722998;83;21086;-65
2022/07/06 06:23:28;;;;;;;4.70;3.67;;;;;;;34.18;49.95;99211.73;1743547;81;21632;-66
2022/07/06 06:25:55;;;;;;;7.03;4.47;;;;;;;34.21;51.05;99207.22;1751926;81;21077;-67
2022/07/06 06:28:21;;;;;;;5.42;4.37;;;;;;;34.56;49.08;99211.11;1737445;80;21645;-67
2022/07/06 06:30:48;;;;;;;7.22;4.00;;;;;;;34.66;48.70;99209.44;1726786;82;21027;-66
2022/07/06 06:33:16;;;;;;;5.72;4.30;;;;;;;34.76;50.06;99205.50;1747564;81;21094;-66
2022/07/06 06:35:48;;;;;;;5.37;4.30;;;;;;;35.00;51.93;99210.28;1748177;81;21574;-66
2022/07/06 06:38:15;;;;;;;5.70;4.00;;;;;;;35.24;48.72;99209.38;1739070;82;21019;-65
2022/07/06 06:40:41;;;;;;;6.25;4.25;;;;;;;35.49;47.78;99200.91;1738104;81;21478;-65
2022/07/06 06:43:08;;;;;;;6.53;4.03;;;;;;;35.47;47.00;99196.31;1741793;81;21597;-64
2022/07/06 06:45:36;;;;;;;7.22;4.25;;;;;;;35.37;47.95;99194.61;1738623;82;21074;-63
2022/07/06 06:48:04;;;;;;;5.40;4.40;;;;;;;35.59;46.62;99188.45;1724384;81;20996;-66
2022/07/06 06:50:30;;;;;;;7.12;4.37;;;;;;;35.53;45.34;99189.48;1721448;83;20992;-65
2022/07/06 06:52:57;;;;;;;5.10;4.00;;;;;;;35.55;46.11;99188.39;1734893;81;20991;-64
2022/07/06 06:55:24;;;;;;;5.75;4.37;;;;;;;35.58;43.54;99184.03;1737501;81;21055;-65
2022/07/06 06:57:51;;;;;;;8.53;4.45;;;;;;;35.66;43.92;99175.51;1736128;82;21000;-65
2022/07/06 07:00:17;;;;;;;6.83;4.20;;;;;;;35.61;42.66;99173.86;1713033;82;21556;-65
2022/07/06 07:02:45;;;;;;;4.58;3.80;;;;;;;35.59;43.03;99173.50;1734148;81;21569;-66
2022/07/06 07:05:12;;;;;;;4.70;3.37;;;;;;;35.36;43.71;99178.25;1737321;81;21023;-66
2022/07/06 07:07:38;;;;;;;5.03;3.47;;;;;;;35.42;45.50;99172.22;1741236;81;21018;-64
2022/07/06 07:10:07;;;;;;;4.78;3.50;;;;;;;35.07;45.12;99173.30;1743028;81;21087;-65
2022/07/06 07:12:33;;;;;;;7.90;3.85;;;;;;;34.66;45.10;99170.48;1737394;82;20968;-65
2022/07/06 07:15:01;;;;;;;6.42;3.60;;;;;;;34.22;45.63;99173.52;1735849;82;21043;-65
2022/07/06 07:17:27;;;;;;;7.78;3.65;;;;;;;34.10;47.39;99172.78;1723054;82;21554;-65
2022/07/06 07:19:55;;;;;;;6.75;3.83;;;;;;;34.18;49.10;99172.20;1724705;81;21098;-64
2022/07/06 07:22:22;;;;;;;6.45;3.12;;;;;;;34.39;48.16;99179.30;1745627;81;21076;-65
2022/07/06 07:24:48;;;;;;;6.53;3.12;;;;;;;34.59;46.07;99172.86;1760309;81;21427;-62
2022/07/06 07:27:15;;;;;;;7.12;3.35;;;;;;;34.91;44.34;99178.41;1749891;81;21463;-62
2022/07/06 07:29:41;;;;;;;6.17;3.40;;;;;;;35.10;43.84;99170.19;1739932;82;21023;-65
2022/07/06 07:32:08;;;;;;;4.53;2.87;;;;;;;35.20;44.17;99168.47;1738943;82;21031;-65
2022/07/06 07:34:35;;;;;;;4.70;2.62;;;;;;;35.37;42.72;99171.36;1739429;82;21210;-66
2022/07/06 07:37:03;;;;;;;5.12;2.70;;;;;;;35.39;39.41;99168.09;1744994;82;21047;-66
2022/07/06 07:39:30;;;;;;;7.83;2.90;;;;;;;35.35;40.45;99163.16;1746500;81;21023;-65
2022/07/06 07:41:56;;;;;;;5.58;3.00;;;;;;;35.43;40.46;99164.50;1733347;82;20971;-65
2022/07/06 07:44:24;;;;;;;3.58;2.55;;;;;;;35.41;40.92;99162.14;1739271;81;21552;-65
2022/07/06 07:46:52;;;;;;;3.75;2.60;;;;;;;35.59;40.81;99156.52;1721935;81;21008;-64
2022/07/06 07:49:20;;;;;;;4.75;2.42;;;;;;;35.66;39.52;99156.31;1739920;81;21555;-66
2022/07/06 07:51:49;;;;;;;4.97;2.75;;;;;;;35.79;39.24;99163.53;1739120;81;21941;-67
2022/07/06 07:54:15;;;;;;;4.45;2.37;;;;;;;35.85;39.90;99163.11;1744561;81;21110;-65
2022/07/06 07:56:42;;;;;;;4.05;2.40;;;;;;;35.71;39.03;99159.34;1746247;81;21011;-65
2022/07/06 07:59:08;;;;;;;3.60;2.25;;;;;;;35.82;40.55;99157.57;1746082;81;21031;-66
2022/07/06 08:01:36;;;;;;;6.70;2.40;;;;;;;36.01;39.04;99157.94;1746076;81;21011;-66
2022/07/06 08:04:03;;;;;;;4.90;2.33;;;;;;;36.19;38.47;99158.14;1742242;81;21558;-66
2022/07/06 08:06:30;;;;;;;8.38;2.37;;;;;;;36.32;38.83;99159.49;1732834;80;21563;-66
2022/07/06 08:08:58;;;;;;;13.93;2.40;;;;;;;36.53;37.99;99153.70;1737126;81;21698;-66
2022/07/06 08:11:24;;;;;;;4.47;2.40;;;;;;;36.48;37.42;99155.70;1732833;82;21591;-66
2022/07/06 08:13:52;;;;;;;2.47;1.77;;;;;;;36.46;36.60;99152.55;1739495;81;21138;-66
2022/07/06 08:16:19;;;;;;;4.12;2.15;;;;;;;36.50;36.42;99154.59;1744361;81;21031;-65
2022/07/06 08:18:45;;;;;;;8.73;2.40;;;;;;;36.47;36.24;99157.73;1745912;80;21029;-65
2022/07/06 08:21:12;;;;;;;5.62;2.08;;;;;;;36.36;35.45;99152.45;1734802;81;21064;-66
2022/07/06 08:23:38;;;;;;;4.47;2.20;;;;;;;36.20;37.46;99158.31;1738510;81;21125;-66
2022/07/06 08:26:05;;;;;;;4.45;2.35;;;;;;;36.30;38.11;99154.92;1741765;81;21028;-66
2022/07/06 08:28:32;;;;;;;3.62;1.80;;;;;;;36.40;36.97;99149.49;1741095;81;21104;-66
2022/07/06 08:30:59;;;;;;;3.08;1.85;;;;;;;36.42;36.99;99150.61;1738944;82;21106;-64
2022/07/06 08:33:26;;;;;;;4.03;1.92;;;;;;;36.47;36.40;99155.52;1744103;80;21098;-68
2022/07/06 08:35:52;;;;;;;5.05;2.12;;;;;;;36.36;35.49;99153.08;1722023;81;21582;-68
2022/07/06 08:38:19;;;;;;;4.70;2.17;;;;;;;36.32;35.83;99153.83;1714599;83;21063;-68
2022/07/06 08:40:47;;;;;;;5.20;2.08;;;;;;;36.45;35.46;99147.50;1697704;83;21468;-67
2022/07/06 08:43:14;;;;;;;5.60;2.30;;;;;;;36.43;36.67;99149.98;1705974;82;21114;-67
2022/07/06 08:45:43;;;;;;;6.35;2.27;;;;;;;36.45;35.76;99145.28;1699421;82;21015;-67
2022/07/06 08:48:10;;;;;;;4.28;2.60;;;;;;;36.39;35.41;99142.23;1718109;82;21687;-65
2022/07/06 08:50:37;;;;;;;5.47;2.55;;;;;;;36.34;36.18;99140.80;1716078;83;21648;-68
2022/07/06 08:53:04;;;;;;;3.67;2.27;;;;;;;36.23;36.68;99141.01;1706644;83;21075;-67
2022/07/06 08:55:31;;;;;;;8.00;2.45;;;;;;;35.98;36.04;99139.03;1715578;82;21071;-69
2022/07/06 08:57:58;;;;;;;6.20;2.37;;;;;;;35.72;38.50;99136.88;1715983;83;21577;-68
2022/07/06 09:00:25;;;;;;;4.58;2.40;;;;;;;35.56;39.24;99124.87;1705757;83;21005;-68
2022/07/06 09:02:54;;;;;;;4.60;2.33;;;;;;;35.30;39.41;99115.61;1703413;83;21573;-68
2022/07/06 09:05:21;;;;;;;4.90;2.87;;;;;;;34.94;40.90;99120.95;1716919;82;20987;-67
2022/07/06 09:07:50;;;;;;;5.05;2.52;;;;;;;34.76;40.10;99116.45;1716755;83;21429;-68
2022/07/06 09:10:19;;;;;;;3.47;2.50;;;;;;;34.55;42.40;99122.70;1718328;83;21076;-69
2022/07/06 09:12:46;;;;;;;6.40;2.58;;;;;;;34.39;41.42;99115.72;1699348;83;21054;-66
2022/07/06 09:15:14;;;;;;;4.45;2.37;;;;;;;34.19;43.59;99117.92;1710999;82;21106;-67
2022/07/06 09:17:42;;;;;;;5.15;2.42;;;;;;;34.09;43.35;99116.13;1715628;82;21126;-67
2022/07/06 09:20:12;;;;;;;8.25;2.90;;;;;;;33.96;43.05;99112.64;1711529;83;21028;-67
2022/07/06 09:22:39;;;;;;;4.80;2.62;;;;;;;33.75;42.58;99111.79;1706820;83;21590;-68
2022/07/06 09:25:14;;;;;;;5.70;2.83;;;;;;;33.59;43.62;99114.58;1715377;82;21083;-66
2022/07/06 09:27:49;;;;;;;3.70;2.90;;;;;;;33.51;45.23;99101.91;1708827;82;21546;-69
2022/07/06 09:30:16;;;;;;;6.70;3.05;;;;;;;33.59;45.29;99101.87;1702075;82;21010;-66
2022/07/06 09:32:45;;;;;;;6.53;3.10;;;;;;;33.57;44.76;99099.33;1714488;83;21028;-68
2022/07/06 09:35:30;;;;;;;4.37;2.75;;;;;;;33.47;45.35;99099.17;1711292;83;20972;-67
2022/07/06 09:38:04;;;;;;;6.40;3.30;;;;;;;33.42;42.73;99086.19;1722464;82;20991;-68
2022/07/06 09:40:35;;;;;;;8.30;3.50;;;;;;;33.20;44.25;99092.17;1723849;82;21000;-66
2022/07/06 09:43:18;;;;;;;14.73;3.50;;;;;;;32.98;43.87;99087.00;1680382;84;21111;-67
2022/07/06 09:45:47;;;;;;;6.12;3.58;;;;;;;32.88;45.90;99094.30;1697462;83;21007;-67
2022/07/06 09:48:24;;;;;;;10.40;3.67;;;;;;;32.79;44.84;99085.05;1713066;82;21114;-67
2022/07/06 09:50:57;;;;;;;6.72;3.58;;;;;;;32.71;45.31;99084.22;1705573;82;21034;-67
2022/07/06 09:53:26;;;;;;;5.87;3.50;;;;;;;32.62;44.56;99074.97;1699841;82;21072;-67
2022/07/06 09:55:56;;;;;;;6.95;3.22;;;;;;;32.56;46.95;99080.27;1679533;85;21107;-67
2022/07/06 09:58:22;;;;;;;8.35;3.80;;;;;;;32.55;46.76;99076.50;1714254;82;21059;-67
2022/07/06 10:00:51;;;;;;;4.87;3.60;;;;;;;32.43;46.12;99084.98;1694610;84;21378;-66
2022/07/06 10:03:17;;;;;;;4.37;3.37;;;;;;;32.42;47.35;99071.33;1694640;83;21135;-66
2022/07/06 10:05:49;;;;;;;6.20;3.70;;;;;;;32.56;47.91;99072.43;1724452;82;21023;-66
2022/07/06 10:08:17;;;;;;;7.17;3.60;;;;;;;32.74;48.63;99065.02;1713983;82;21051;-66
2022/07/06 10:10:45;;;;;;;5.87;3.30;;;;;;;32.91;46.68;99061.03;1707698;84;21622;-66
2022/07/06 10:13:12;;;;;;;5.62;3.02;;;;;;;33.03;45.31;99056.09;1694734;84;21104;-64
2022/07/06 10:15:40;;;;;;;7.95;3.83;;;;;;;33.20;46.34;99056.92;1702310;82;21037;-66
2022/07/06 10:18:08;;;;;;;5.12;3.60;;;;;;;33.45;45.17;99055.69;1692568;84;21589;-66
2022/07/06 10:20:38;;;;;;;4.30;3.58;;;;;;;33.55;42.49;99058.08;1662158;86;21091;-65
2022/07/06 10:23:08;;;;;;;5.17;3.05;;;;;;;33.51;43.64;99056.12;1690633;83;21067;-68
2022/07/06 10:25:36;;;;;;;6.12;3.98;;;;;;;33.50;42.54;99048.91;1654753;83;21111;-68
2022/07/06 10:28:03;;;;;;;8.18;3.95;;;;;;;33.61;43.28;99043.59;1693123;84;21678;-66
2022/07/06 10:30:30;;;;;;;6.55;4.20;;;;;;;33.80;42.38;99043.48;1695565;84;21015;-67
2022/07/06 10:32:58;;;;;;;6.33;3.60;;;;;;;33.96;40.69;99046.90;1708909;83;21007;-67
2022/07/06 10:35:24;;;;;;;7.58;3.80;;;;;;;33.91;39.94;99041.17;1712665;84;20976;-67
2022/07/06 10:38:10;;;;;;;6.25;3.80;;;;;;;33.86;39.88;99034.67;1709083;82;21015;-67
2022/07/06 10:43:34;;;;;;;6.45;3.87;;;;;;;34.05;39.92;99029.33;1731869;81;21050;-66
2022/07/06 10:46:15;;;;;;;7.60;4.28;;;;;;;34.15;38.48;99018.37;1742845;81;21031;-67
2022/07/06 10:48:43;;;;;;;5.12;3.52;;;;;;;34.25;38.89;99014.44;1747816;81;21095;-68
2022/07/06 10:51:28;;;;;;;6.60;3.35;;;;;;;34.32;38.16;99007.16;1736988;81;21039;-67
2022/07/06 10:54:03;;;;;;;6.15;4.37;;;;;;;34.41;36.98;99001.01;1747337;80;21115;-68
2022/07/06 10:56:48;;;;;;;7.58;4.12;;;;;;;34.41;36.98;99001.01;1752415;82;21467;-68
2022/07/06 10:59:15;;;;;;;8.25;4.00;;;;;;;34.37;36.88;98994.67;1745463;81;21574;-68
2022/07/06 11:02:14;;;;;;;4.83;3.60;;;;;;;34.34;37.32;98998.40;1746586;81;21031;-69
2022/07/06 11:04:46;;;;;;;4.85;4.12;;;;;;;34.29;37.29;98972.75;1741120;81;21118;-70
2022/07/06 11:07:16;;;;;;;8.23;4.33;;;;;;;34.22;37.76;98978.00;1746892;82;21032;-69
2022/07/06 11:09:56;;;;;;;5.78;4.42;;;;;;;34.20;35.48;98976.23;1728131;81;21142;-69
2022/07/06 11:12:22;;;;;;;5.72;3.85;;;;;;;34.15;36.09;98967.53;1731892;82;21076;-68
2022/07/06 11:14:52;;;;;;;6.22;3.90;;;;;;;34.10;36.44;98959.57;1715169;82;21591;-68
2022/07/06 11:17:19;;;;;;;5.87;4.20;;;;;;;34.20;36.06;98953.63;1715321;83;21531;-67
2022/07/06 11:19:58;;;;;;;6.12;3.87;;;;;;;34.26;35.73;98955.30;1720357;81;21504;-68
2022/07/06 11:22:25;;;;;;;5.03;4.00;;;;;;;34.24;35.03;98952.11;1694170;83;21605;-68
2022/07/06 11:24:59;;;;;;;5.50;4.12;;;;;;;34.08;35.61;98964.89;1694471;83;21636;-69
2022/07/06 11:27:23;;;;;;;4.78;3.98;;;;;;;34.00;36.77;98964.30;1723915;81;20991;-68
2022/07/06 11:29:49;;;;;;;7.85;4.10;;;;;;;33.87;36.09;98960.02;1741529;81;21058;-68
2022/07/06 11:32:16;;;;;;;6.22;4.12;;;;;;;33.74;35.56;98961.22;1743034;81;21031;-68
2022/07/06 11:34:44;;;;;;;5.95;3.83;;;;;;;33.64;36.04;98960.91;1689253;83;21067;-68
2022/07/06 11:37:12;;;;;;;8.75;4.10;;;;;;;33.61;36.77;98966.00;1744685;81;21062;-68
2022/07/06 11:39:41;;;;;;;7.28;4.70;;;;;;;33.59;36.82;98959.38;1742690;80;21500;-69
2022/07/06 11:42:10;;;;;;;7.75;5.03;;;;;;;33.53;37.73;98963.98;1752947;81;20974;-68